createdAt,value
2023-02-09T00:01:43.744Z,14.40
2023-02-09T00:04:12.984Z,14.30
2023-02-09T00:06:41.328Z,13.20
2023-02-09T00:09:09.912Z,14.00
2023-02-09T00:11:57.352Z,14.30
2023-02-09T00:14:26.237Z,14.40
2023-02-09T00:16:55.634Z,14.50
2023-02-09T00:19:24.154Z,13.20
2023-02-09T00:21:53.000Z,14.40
2023-02-09T00:24:22.011Z,14.10
2023-02-09T00:26:50.707Z,13.30
2023-02-09T00:29:25.617Z,13.50
2023-02-09T00:31:54.438Z,13.80
2023-02-09T00:34:23.288Z,14.20
2023-02-09T00:36:51.780Z,14.80
2023-02-09T00:39:20.472Z,16.10
2023-02-09T00:42:07.167Z,15.50
2023-02-09T00:44:38.104Z,13.90
2023-02-09T00:47:08.843Z,13.40
2023-02-09T00:49:40.193Z,14.70
2023-02-09T00:52:10.015Z,13.80
2023-02-09T00:54:38.889Z,15.70
2023-02-09T00:57:07.399Z,15.70
2023-02-09T00:59:36.072Z,14.20
2023-02-09T01:02:04.742Z,16.80
2023-02-09T01:04:34.500Z,13.30
2023-02-09T01:07:03.034Z,14.10
2023-02-09T01:09:31.718Z,14.50
2023-02-09T01:12:00.415Z,13.20
2023-02-09T01:14:32.691Z,16.10
2023-02-09T01:17:03.346Z,13.60
2023-02-09T01:19:32.834Z,14.10
2023-02-09T01:22:03.606Z,16.20
2023-02-09T01:24:33.042Z,14.10
2023-02-09T01:27:02.070Z,14.80
2023-02-09T01:29:32.214Z,14.30
2023-02-09T01:32:00.985Z,13.70
2023-02-09T01:34:29.658Z,13.80
2023-02-09T01:36:59.482Z,14.60
2023-02-09T01:39:28.443Z,13.50
2023-02-09T01:41:57.358Z,12.80
2023-02-09T01:44:26.424Z,14.30
2023-02-09T01:46:55.009Z,14.40
2023-02-09T01:49:27.594Z,14.30
2023-02-09T01:51:55.858Z,14.70
2023-02-09T01:54:34.885Z,12.90
2023-02-09T01:57:19.246Z,14.70
2023-02-09T01:59:54.855Z,14.50
2023-02-09T02:02:24.045Z,15.30
2023-02-09T02:04:53.305Z,15.30
2023-02-09T02:07:34.072Z,14.20
2023-02-09T02:10:03.567Z,13.70
2023-02-09T02:12:33.370Z,15.90
2023-02-09T02:15:01.974Z,13.10
2023-02-09T02:17:51.934Z,15.60
2023-02-09T02:20:57.783Z,14.40
2023-02-09T02:23:49.927Z,14.40
2023-02-09T02:26:39.397Z,13.70
2023-02-09T02:29:47.038Z,14.30
2023-02-09T02:32:32.779Z,15.30
2023-02-09T02:35:10.217Z,15.20
2023-02-09T02:37:48.728Z,15.20
2023-02-09T02:40:59.248Z,12.90
2023-02-09T02:43:39.619Z,14.80
2023-02-09T02:46:17.868Z,14.80
2023-02-09T02:49:02.202Z,14.00
2023-02-09T02:51:46.937Z,14.10
2023-02-09T02:54:21.603Z,14.50
2023-02-09T02:56:55.477Z,14.90
2023-02-09T02:59:30.819Z,14.50
2023-02-09T03:02:11.174Z,16.20
2023-02-09T03:04:41.819Z,15.00
2023-02-09T03:07:11.216Z,15.30
2023-02-09T03:09:51.779Z,23.40
2023-02-09T03:12:52.493Z,16.70
2023-02-09T03:15:43.750Z,15.40
2023-02-09T03:18:23.276Z,14.80
2023-02-09T03:20:59.344Z,15.40
2023-02-09T03:23:51.045Z,17.10
2023-02-09T03:26:25.303Z,16.40
2023-02-09T03:28:56.843Z,17.00
2023-02-09T03:31:27.642Z,15.90
2023-02-09T03:34:00.843Z,17.70
2023-02-09T03:36:35.064Z,15.20
2023-02-09T03:39:04.322Z,15.80
2023-02-09T03:41:32.754Z,15.80
2023-02-09T03:44:20.172Z,15.80
2023-02-09T03:46:48.759Z,15.30
2023-02-09T03:49:17.446Z,15.60
2023-02-09T03:51:46.116Z,15.80
2023-02-09T03:54:15.016Z,14.40
2023-02-09T03:56:43.496Z,17.00
2023-02-09T03:59:12.076Z,16.10
2023-02-09T04:01:40.654Z,16.70
2023-02-09T04:04:09.444Z,15.90
2023-02-09T04:06:38.781Z,14.20
2023-02-09T04:09:07.652Z,15.20
2023-02-09T04:11:36.428Z,15.10
2023-02-09T04:14:05.413Z,13.60
2023-02-09T04:16:34.237Z,14.80
2023-02-09T04:19:03.709Z,15.40
2023-02-09T04:21:32.813Z,15.50
2023-02-09T04:24:01.396Z,14.60
2023-02-09T04:26:30.271Z,16.10
2023-02-09T04:28:58.758Z,15.30
2023-02-09T04:31:27.278Z,16.40
2023-02-09T04:33:56.033Z,14.70
2023-02-09T04:36:24.818Z,17.50
2023-02-09T04:38:53.505Z,17.10
2023-02-09T04:41:22.108Z,16.50
2023-02-09T04:43:50.770Z,16.80
2023-02-09T04:46:20.216Z,18.00
2023-02-09T04:48:48.865Z,19.90
2023-02-09T04:51:17.545Z,16.60
2023-02-09T04:53:46.228Z,16.60
2023-02-09T04:56:16.369Z,16.00
2023-02-09T04:59:03.716Z,15.00
2023-02-09T05:01:32.489Z,18.20
2023-02-09T05:04:01.289Z,15.40
2023-02-09T05:06:30.243Z,15.50
2023-02-09T05:08:58.930Z,17.90
2023-02-09T05:11:27.929Z,14.50
2023-02-09T05:13:56.515Z,15.60
2023-02-09T05:16:25.751Z,16.50
2023-02-09T05:18:55.662Z,18.70
2023-02-09T05:21:24.334Z,17.20
2023-02-09T05:23:52.955Z,18.50
2023-02-09T05:26:21.894Z,17.40
2023-02-09T05:28:50.779Z,18.90
2023-02-09T05:31:19.988Z,19.20
2023-02-09T05:33:48.656Z,17.60
2023-02-09T05:36:17.443Z,16.50
2023-02-09T05:38:46.909Z,17.00
2023-02-09T05:41:35.817Z,18.40
2023-02-09T05:44:05.733Z,17.40
2023-02-09T05:46:34.322Z,16.00
2023-02-09T05:49:03.600Z,16.90
2023-02-09T05:51:32.383Z,17.30
2023-02-09T05:54:02.018Z,16.00
2023-02-09T05:56:31.698Z,16.80
2023-02-09T05:59:05.214Z,18.10
2023-02-09T06:01:35.055Z,18.80
2023-02-09T06:04:06.439Z,17.00
2023-02-09T06:06:40.999Z,16.50
2023-02-09T06:09:17.352Z,18.00
2023-02-09T06:11:53.870Z,19.20
2023-02-09T06:14:28.419Z,19.70
2023-02-09T06:17:00.091Z,18.00
2023-02-09T06:19:32.055Z,17.10
2023-02-09T06:22:02.024Z,18.40
2023-02-09T06:24:32.647Z,17.50
2023-02-09T06:27:02.467Z,18.10
2023-02-09T06:29:32.239Z,18.40
2023-02-09T06:32:01.704Z,18.60
2023-02-09T06:34:31.553Z,19.20
2023-02-09T06:37:00.137Z,17.40
2023-02-09T06:39:33.077Z,17.70
2023-02-09T06:42:04.065Z,16.40
2023-02-09T06:44:32.450Z,17.40
2023-02-09T06:47:04.392Z,17.50
2023-02-09T06:49:35.680Z,19.60
2023-02-09T06:52:05.323Z,19.10
2023-02-09T06:54:35.799Z,20.10
2023-02-09T06:57:06.614Z,16.40
2023-02-09T06:59:35.312Z,17.30
2023-02-09T07:02:04.425Z,17.60
2023-02-09T07:04:33.079Z,17.40
2023-02-09T07:07:01.976Z,17.90
2023-02-09T07:09:30.562Z,18.30
2023-02-09T07:11:59.244Z,18.10
2023-02-09T07:14:28.728Z,18.90
2023-02-09T07:16:57.128Z,19.90
2023-02-09T07:19:25.917Z,17.30
2023-02-09T07:21:54.698Z,20.50
2023-02-09T07:24:24.870Z,16.10
2023-02-09T07:26:53.821Z,22.00
2023-02-09T07:29:25.963Z,20.30
2023-02-09T07:31:55.018Z,19.40
2023-02-09T07:34:24.176Z,18.40
2023-02-09T07:36:53.534Z,19.90
2023-02-09T07:39:23.396Z,20.10
2023-02-09T07:41:52.891Z,17.30
2023-02-09T07:44:23.246Z,13.20
2023-02-09T07:46:52.542Z,18.20
2023-02-09T07:49:21.152Z,18.30
2023-02-09T07:51:50.650Z,20.10
2023-02-09T07:54:19.491Z,17.40
2023-02-09T07:56:48.286Z,17.90
2023-02-09T07:59:16.862Z,16.20
2023-02-09T08:01:46.141Z,18.80
2023-02-09T08:04:15.149Z,18.70
2023-02-09T08:06:46.098Z,18.00
2023-02-09T08:09:19.195Z,17.50
2023-02-09T08:11:53.035Z,17.70
2023-02-09T08:14:30.278Z,17.10
2023-02-09T08:17:21.617Z,16.90
2023-02-09T08:19:55.011Z,16.20
2023-02-09T08:22:25.895Z,18.20
2023-02-09T08:24:55.151Z,19.90
2023-02-09T08:27:24.220Z,18.70
2023-02-09T08:29:53.226Z,18.70
2023-02-09T08:32:22.237Z,13.70
2023-02-09T08:34:50.812Z,20.40
2023-02-09T08:37:19.570Z,16.60
2023-02-09T08:39:48.468Z,16.60
2023-02-09T08:42:17.169Z,17.10
2023-02-09T08:44:47.278Z,14.40
2023-02-09T08:47:16.887Z,15.00
2023-02-09T08:49:45.588Z,17.60
2023-02-09T08:52:16.002Z,14.60
2023-02-09T08:54:44.595Z,13.90
2023-02-09T08:57:13.056Z,16.00
2023-02-09T08:59:42.050Z,15.20
2023-02-09T09:02:10.637Z,15.60
2023-02-09T09:04:39.658Z,15.10
2023-02-09T09:07:08.106Z,15.40
2023-02-09T09:09:36.908Z,12.70
2023-02-09T09:12:06.196Z,16.10
2023-02-09T09:14:35.098Z,15.00
2023-02-09T09:17:03.816Z,13.60
2023-02-09T09:19:32.807Z,15.70
2023-02-09T09:22:03.814Z,14.50
2023-02-09T09:24:34.003Z,13.90
2023-02-09T09:27:03.326Z,13.80
2023-02-09T09:29:34.472Z,13.30
2023-02-09T09:32:03.729Z,13.10
2023-02-09T09:34:33.043Z,14.00
2023-02-09T09:37:02.693Z,13.60
2023-02-09T09:39:32.492Z,12.50
2023-02-09T09:42:01.893Z,13.00
2023-02-09T09:44:41.334Z,14.50
2023-02-09T09:47:26.504Z,11.90
2023-02-09T09:49:58.740Z,12.60
2023-02-09T09:52:36.888Z,12.20
2023-02-09T09:57:48.603Z,12.90
2023-02-09T10:00:38.672Z,10.70
2023-02-09T10:03:19.759Z,11.30
2023-02-09T16:46:34.275Z,20.80
2023-02-09T16:49:06.012Z,22.20
2023-02-09T16:51:35.420Z,19.70
2023-02-09T16:54:07.186Z,22.90
2023-02-09T16:56:53.613Z,20.30
2023-02-09T16:59:25.530Z,23.10
2023-02-09T17:01:55.338Z,20.50
2023-02-09T17:04:26.476Z,22.80
2023-02-09T17:06:55.659Z,22.20
2023-02-09T17:09:24.976Z,22.40
2023-02-09T17:11:58.671Z,21.50
2023-02-09T17:14:30.565Z,21.90
2023-02-09T17:16:59.694Z,25.40
2023-02-09T17:19:35.738Z,29.60
2023-02-09T17:22:14.319Z,31.60
2023-02-09T17:24:47.489Z,36.60
2023-02-09T17:27:19.887Z,23.60
2023-02-09T17:29:51.755Z,15.30
2023-02-09T17:32:24.138Z,14.80
2023-02-09T17:34:53.424Z,19.70
2023-02-09T17:37:30.523Z,24.30
2023-02-09T17:40:02.447Z,23.70
2023-02-09T17:42:42.517Z,21.30
2023-02-09T17:45:24.909Z,21.50
2023-02-09T17:47:59.500Z,31.40
2023-02-09T17:50:30.512Z,28.90
2023-02-09T17:53:05.266Z,26.10
2023-02-09T17:55:41.369Z,41.70
2023-02-09T17:58:15.457Z,43.40
2023-02-09T18:00:46.029Z,25.10
2023-02-09T18:03:23.152Z,26.90
2023-02-09T18:08:33.137Z,28.30
2023-02-09T18:11:07.957Z,28.20
2023-02-09T18:13:43.551Z,28.80
2023-02-09T18:16:15.852Z,25.60
2023-02-09T18:18:50.325Z,26.20
2023-02-09T18:21:21.241Z,27.10
2023-02-09T18:23:52.922Z,26.90
2023-02-09T18:26:28.583Z,24.20
2023-02-09T18:29:03.716Z,24.00
2023-02-09T18:31:34.493Z,24.20
2023-02-09T18:34:21.411Z,27.60
2023-02-09T18:36:53.680Z,27.30
2023-02-09T18:39:23.858Z,28.10
2023-02-09T18:41:56.108Z,28.60
2023-02-09T18:44:30.627Z,28.30
2023-02-09T18:47:04.769Z,29.80
2023-02-09T18:49:34.219Z,28.00
2023-02-09T18:52:11.710Z,30.10
2023-02-09T18:54:48.683Z,29.60
2023-02-09T18:57:20.790Z,31.40
2023-02-09T19:00:02.669Z,30.30
2023-02-09T19:02:35.810Z,31.90
2023-02-09T19:05:07.008Z,34.10
2023-02-09T19:07:41.031Z,31.40
2023-02-09T19:10:16.352Z,31.20
2023-02-09T19:12:46.517Z,28.10
2023-02-09T19:15:27.435Z,29.20
2023-02-09T19:17:57.659Z,36.20
2023-02-09T19:20:29.623Z,35.40
2023-02-09T19:26:45.944Z,35.50
2023-02-09T19:29:25.795Z,34.60
2023-02-09T19:31:59.375Z,33.30
2023-02-09T19:34:39.940Z,33.50
2023-02-09T19:37:20.061Z,31.90
2023-02-09T19:39:53.534Z,31.00
2023-02-09T19:42:37.199Z,30.00
2023-02-09T19:45:06.509Z,32.50
2023-02-09T19:47:39.002Z,38.00
2023-02-09T19:52:51.664Z,32.20
2023-02-09T19:55:22.460Z,36.50
2023-02-09T19:57:52.589Z,34.80
2023-02-09T20:00:21.821Z,39.50
2023-02-09T20:02:56.396Z,38.30
2023-02-09T20:05:25.035Z,43.50
2023-02-09T20:07:55.741Z,44.80
2023-02-09T20:10:24.873Z,34.70
2023-02-09T20:13:01.924Z,34.00
2023-02-09T20:15:34.419Z,37.90
2023-02-09T20:18:04.174Z,37.90
2023-02-09T20:20:33.402Z,38.50
2023-02-09T20:23:04.989Z,37.60
2023-02-09T20:25:35.091Z,35.80
2023-02-09T20:28:04.922Z,33.60
2023-02-09T20:30:35.205Z,37.50
2023-02-09T20:33:05.479Z,37.90
2023-02-09T20:35:34.238Z,39.30
2023-02-09T20:38:04.933Z,38.60
2023-02-09T20:40:34.166Z,37.10
2023-02-09T20:43:22.625Z,35.70
2023-02-09T20:46:12.689Z,38.10
2023-02-09T20:48:41.398Z,37.70
2023-02-09T20:51:09.888Z,39.40
2023-02-09T20:53:39.296Z,37.30
2023-02-09T20:56:10.068Z,32.90
2023-02-09T20:58:38.937Z,37.40
2023-02-09T21:04:39.182Z,32.80
2023-02-09T21:07:09.562Z,31.00
2023-02-09T21:09:38.666Z,28.60
2023-02-09T21:12:07.164Z,29.30
2023-02-09T21:14:42.202Z,28.90
2023-02-09T21:17:12.713Z,30.00
2023-02-09T21:19:41.450Z,29.30
2023-02-09T21:25:49.508Z,28.50
2023-02-09T21:28:18.345Z,27.10
2023-02-09T21:30:47.262Z,26.40
2023-02-09T21:33:15.794Z,26.20
2023-02-09T21:35:44.488Z,28.00
2023-02-09T21:38:18.905Z,28.40
2023-02-09T21:40:49.551Z,28.00
2023-02-09T21:43:17.998Z,28.50
2023-02-09T21:45:46.492Z,25.70
2023-02-09T21:48:14.957Z,28.90
2023-02-09T21:50:43.942Z,27.10
2023-02-09T21:53:13.048Z,27.70
2023-02-09T21:55:43.661Z,26.90
2023-02-09T21:58:12.919Z,28.90
2023-02-09T22:00:41.464Z,27.70
2023-02-09T22:03:09.931Z,28.90
2023-02-09T22:05:38.309Z,29.80
2023-02-09T22:08:06.803Z,27.10
2023-02-09T22:10:36.131Z,26.30
2023-02-09T22:13:08.670Z,26.50
2023-02-09T22:15:40.966Z,26.80
2023-02-09T22:18:10.544Z,28.00
2023-02-09T22:20:47.264Z,27.50
2023-02-09T22:25:44.378Z,26.50
2023-02-09T22:28:14.000Z,27.90
2023-02-09T22:30:42.897Z,26.90
2023-02-09T22:33:11.616Z,28.20
2023-02-09T22:35:41.802Z,28.60
2023-02-09T22:38:10.061Z,28.10
2023-02-09T22:40:39.149Z,27.60
2023-02-09T22:43:07.766Z,28.30
2023-02-09T22:45:36.315Z,27.60
2023-02-09T22:48:05.514Z,32.00
2023-02-09T22:50:33.791Z,30.30
2023-02-09T22:53:02.159Z,28.00
2023-02-09T22:55:30.758Z,27.10
2023-02-09T22:57:59.345Z,26.10
2023-02-09T23:00:27.823Z,28.10
2023-02-09T23:02:56.616Z,26.00
2023-02-09T23:05:24.996Z,31.10
2023-02-09T23:07:53.496Z,31.00
2023-02-09T23:10:22.892Z,30.70
2023-02-09T23:12:51.663Z,29.90
2023-02-09T23:15:20.893Z,28.70
2023-02-09T23:17:49.761Z,26.10
2023-02-09T23:20:18.803Z,29.30
2023-02-09T23:22:47.341Z,29.10
2023-02-09T23:25:15.918Z,29.50
2023-02-09T23:27:44.433Z,28.50
2023-02-09T23:30:14.265Z,29.90
2023-02-09T23:32:43.749Z,27.50
2023-02-09T23:35:18.364Z,28.10
2023-02-09T23:37:48.062Z,27.00
2023-02-09T23:40:16.831Z,27.20
2023-02-09T23:42:45.103Z,28.40
2023-02-09T23:45:13.594Z,27.90
2023-02-09T23:47:43.690Z,28.30
2023-02-09T23:50:13.345Z,26.10
2023-02-09T23:52:43.125Z,27.90
2023-02-09T23:55:11.606Z,25.60
2023-02-09T23:57:40.092Z,27.90
